sensor_id;sensor_type;location;lat;lon;timestamp;P1;durP1;ratioP1;P2;durP2;ratioP2
21987;SDS011;11158;53.404;-1.510;2023-02-15T00:01:37;37.95;;;22.08;;
21987;SDS011;11158;53.404;-1.510;2023-02-15T00:04:04;32.03;;;21.40;;
21987;SDS011;11158;53.404;-1.510;2023-02-15T00:06:31;32.90;;;21.42;;
21987;SDS011;11158;53.404;-1.510;2023-02-15T00:08:56;33.42;;;22.65;;
21987;SDS011;11158;53.404;-1.510;2023-02-15T00:11:23;33.58;;;22.33;;
21987;SDS011;11158;53.404;-1.510;2023-02-15T00:14:09;32.50;;;21.85;;
21987;SDS011;11158;53.404;-1.510;2023-02-15T00:16:37;34.72;;;22.90;;
21987;SDS011;11158;53.404;-1.510;2023-02-15T00:19:04;33.22;;;22.40;;
21987;SDS011;11158;53.404;-1.510;2023-02-15T00:21:30;39.22;;;23.20;;
21987;SDS011;11158;53.404;-1.510;2023-02-15T00:23:58;32.90;;;21.95;;
21987;SDS011;11158;53.404;-1.510;2023-02-15T00:26:24;35.15;;;22.75;;
21987;SDS011;11158;53.404;-1.510;2023-02-15T00:28:52;34.00;;;22.15;;
21987;SDS011;11158;53.404;-1.510;2023-02-15T00:31:19;40.35;;;22.98;;
21987;SDS011;11158;53.404;-1.510;2023-02-15T00:33:45;36.33;;;23.98;;
21987;SDS011;11158;53.404;-1.510;2023-02-15T00:36:11;35.10;;;23.80;;
21987;SDS011;11158;53.404;-1.510;2023-02-15T00:38:37;35.80;;;23.73;;
21987;SDS011;11158;53.404;-1.510;2023-02-15T00:41:04;36.78;;;23.50;;
21987;SDS011;11158;53.404;-1.510;2023-02-15T00:43:31;39.65;;;24.25;;
21987;SDS011;11158;53.404;-1.510;2023-02-15T00:45:58;36.95;;;24.00;;
21987;SDS011;11158;53.404;-1.510;2023-02-15T00:48:24;36.30;;;23.50;;
21987;SDS011;11158;53.404;-1.510;2023-02-15T00:50:50;35.50;;;24.10;;
21987;SDS011;11158;53.404;-1.510;2023-02-15T00:53:26;35.85;;;24.08;;
21987;SDS011;11158;53.404;-1.510;2023-02-15T00:56:07;46.25;;;25.13;;
21987;SDS011;11158;53.404;-1.510;2023-02-15T00:58:33;35.70;;;23.80;;
21987;SDS011;11158;53.404;-1.510;2023-02-15T01:01:05;34.22;;;23.60;;
21987;SDS011;11158;53.404;-1.510;2023-02-15T01:03:33;35.63;;;23.60;;
21987;SDS011;11158;53.404;-1.510;2023-02-15T01:06:00;37.83;;;24.35;;
21987;SDS011;11158;53.404;-1.510;2023-02-15T01:08:25;43.03;;;27.42;;
21987;SDS011;11158;53.404;-1.510;2023-02-15T01:10:51;37.53;;;25.60;;
21987;SDS011;11158;53.404;-1.510;2023-02-15T01:13:17;43.95;;;26.13;;
21987;SDS011;11158;53.404;-1.510;2023-02-15T01:15:43;38.00;;;25.42;;
21987;SDS011;11158;53.404;-1.510;2023-02-15T01:18:09;40.92;;;25.33;;
21987;SDS011;11158;53.404;-1.510;2023-02-15T01:20:37;41.00;;;26.52;;
21987;SDS011;11158;53.404;-1.510;2023-02-15T01:23:06;43.75;;;26.90;;
21987;SDS011;11158;53.404;-1.510;2023-02-15T01:25:33;39.70;;;25.58;;
21987;SDS011;11158;53.404;-1.510;2023-02-15T01:27:59;42.17;;;26.45;;
21987;SDS011;11158;53.404;-1.510;2023-02-15T01:30:25;42.63;;;25.98;;
21987;SDS011;11158;53.404;-1.510;2023-02-15T01:32:51;41.55;;;26.63;;
21987;SDS011;11158;53.404;-1.510;2023-02-15T01:35:16;46.22;;;29.17;;
21987;SDS011;11158;53.404;-1.510;2023-02-15T01:37:42;48.45;;;32.10;;
21987;SDS011;11158;53.404;-1.510;2023-02-15T01:40:08;48.33;;;30.55;;
21987;SDS011;11158;53.404;-1.510;2023-02-15T01:42:39;45.63;;;31.57;;
21987;SDS011;11158;53.404;-1.510;2023-02-15T01:45:14;42.08;;;27.35;;
21987;SDS011;11158;53.404;-1.510;2023-02-15T01:47:58;40.45;;;27.50;;
21987;SDS011;11158;53.404;-1.510;2023-02-15T01:50:26;39.28;;;25.75;;
21987;SDS011;11158;53.404;-1.510;2023-02-15T01:53:09;40.58;;;27.05;;
21987;SDS011;11158;53.404;-1.510;2023-02-15T01:55:43;41.70;;;26.70;;
21987;SDS011;11158;53.404;-1.510;2023-02-15T01:58:15;42.25;;;27.00;;
21987;SDS011;11158;53.404;-1.510;2023-02-15T02:00:42;42.25;;;26.67;;
21987;SDS011;11158;53.404;-1.510;2023-02-15T02:03:08;40.72;;;26.02;;
21987;SDS011;11158;53.404;-1.510;2023-02-15T02:05:34;40.50;;;25.30;;
21987;SDS011;11158;53.404;-1.510;2023-02-15T02:08:01;41.58;;;26.70;;
21987;SDS011;11158;53.404;-1.510;2023-02-15T02:10:27;43.15;;;26.58;;
21987;SDS011;11158;53.404;-1.510;2023-02-15T02:13:02;39.03;;;26.42;;
21987;SDS011;11158;53.404;-1.510;2023-02-15T02:15:38;39.75;;;24.98;;
21987;SDS011;11158;53.404;-1.510;2023-02-15T02:18:32;35.92;;;23.17;;
21987;SDS011;11158;53.404;-1.510;2023-02-15T02:21:21;39.25;;;24.15;;
21987;SDS011;11158;53.404;-1.510;2023-02-15T02:27:07;35.15;;;23.70;;
21987;SDS011;11158;53.404;-1.510;2023-02-15T02:35:10;36.33;;;22.65;;
21987;SDS011;11158;53.404;-1.510;2023-02-15T02:41:38;33.35;;;22.50;;
21987;SDS011;11158;53.404;-1.510;2023-02-15T02:43:47;34.53;;;22.58;;
21987;SDS011;11158;53.404;-1.510;2023-02-15T02:49:17;34.53;;;22.23;;
21987;SDS011;11158;53.404;-1.510;2023-02-15T02:51:59;32.10;;;21.00;;
21987;SDS011;11158;53.404;-1.510;2023-02-15T02:54:26;37.28;;;22.40;;
21987;SDS011;11158;53.404;-1.510;2023-02-15T02:56:53;33.17;;;21.48;;
21987;SDS011;11158;53.404;-1.510;2023-02-15T02:59:27;38.22;;;20.95;;
21987;SDS011;11158;53.404;-1.510;2023-02-15T03:04:31;29.00;;;19.75;;
21987;SDS011;11158;53.404;-1.510;2023-02-15T03:07:04;33.85;;;20.13;;
21987;SDS011;11158;53.404;-1.510;2023-02-15T03:12:11;32.97;;;20.80;;
21987;SDS011;11158;53.404;-1.510;2023-02-15T03:14:45;34.15;;;20.58;;
21987;SDS011;11158;53.404;-1.510;2023-02-15T03:17:16;34.00;;;21.08;;
21987;SDS011;11158;53.404;-1.510;2023-02-15T03:19:45;35.10;;;21.52;;
21987;SDS011;11158;53.404;-1.510;2023-02-15T03:24:42;30.40;;;19.80;;
21987;SDS011;11158;53.404;-1.510;2023-02-15T03:27:33;31.67;;;19.83;;
21987;SDS011;11158;53.404;-1.510;2023-02-15T03:30:03;30.67;;;19.60;;
21987;SDS011;11158;53.404;-1.510;2023-02-15T03:32:32;32.83;;;19.63;;
21987;SDS011;11158;53.404;-1.510;2023-02-15T03:35:00;33.50;;;20.45;;
21987;SDS011;11158;53.404;-1.510;2023-02-15T03:37:28;30.40;;;19.05;;
21987;SDS011;11158;53.404;-1.510;2023-02-15T03:40:06;30.33;;;20.05;;
21987;SDS011;11158;53.404;-1.510;2023-02-15T03:45:51;35.10;;;20.58;;
21987;SDS011;11158;53.404;-1.510;2023-02-15T03:48:21;35.55;;;20.13;;
21987;SDS011;11158;53.404;-1.510;2023-02-15T03:50:52;30.63;;;19.85;;
21987;SDS011;11158;53.404;-1.510;2023-02-15T03:53:41;30.88;;;20.45;;
21987;SDS011;11158;53.404;-1.510;2023-02-15T03:56:08;33.50;;;20.70;;
21987;SDS011;11158;53.404;-1.510;2023-02-15T03:58:33;31.23;;;19.88;;
21987;SDS011;11158;53.404;-1.510;2023-02-15T04:01:33;33.75;;;21.45;;
21987;SDS011;11158;53.404;-1.510;2023-02-15T04:04:21;33.03;;;21.88;;
21987;SDS011;11158;53.404;-1.510;2023-02-15T04:06:50;35.72;;;21.60;;
21987;SDS011;11158;53.404;-1.510;2023-02-15T04:09:16;36.08;;;22.55;;
21987;SDS011;11158;53.404;-1.510;2023-02-15T04:12:00;36.05;;;22.05;;
21987;SDS011;11158;53.404;-1.510;2023-02-15T04:14:25;33.20;;;21.98;;
21987;SDS011;11158;53.404;-1.510;2023-02-15T04:17:09;37.63;;;23.23;;
21987;SDS011;11158;53.404;-1.510;2023-02-15T04:19:35;38.85;;;22.30;;
21987;SDS011;11158;53.404;-1.510;2023-02-15T04:22:19;32.85;;;22.02;;
21987;SDS011;11158;53.404;-1.510;2023-02-15T04:25:04;43.70;;;23.05;;
21987;SDS011;11158;53.404;-1.510;2023-02-15T04:27:41;32.30;;;21.02;;
21987;SDS011;11158;53.404;-1.510;2023-02-15T04:30:08;33.22;;;21.48;;
21987;SDS011;11158;53.404;-1.510;2023-02-15T04:32:35;33.50;;;21.35;;
21987;SDS011;11158;53.404;-1.510;2023-02-15T04:35:01;34.85;;;22.05;;
21987;SDS011;11158;53.404;-1.510;2023-02-15T04:37:27;33.92;;;21.98;;
21987;SDS011;11158;53.404;-1.510;2023-02-15T04:39:53;37.47;;;22.83;;
21987;SDS011;11158;53.404;-1.510;2023-02-15T04:42:18;37.33;;;21.45;;
21987;SDS011;11158;53.404;-1.510;2023-02-15T04:44:44;39.08;;;23.17;;
21987;SDS011;11158;53.404;-1.510;2023-02-15T04:47:10;37.58;;;22.25;;
21987;SDS011;11158;53.404;-1.510;2023-02-15T04:49:35;38.30;;;22.80;;
21987;SDS011;11158;53.404;-1.510;2023-02-15T04:52:01;31.92;;;21.60;;
21987;SDS011;11158;53.404;-1.510;2023-02-15T04:54:26;35.65;;;21.90;;
21987;SDS011;11158;53.404;-1.510;2023-02-15T04:56:52;35.03;;;21.40;;
21987;SDS011;11158;53.404;-1.510;2023-02-15T04:59:18;36.78;;;22.05;;
21987;SDS011;11158;53.404;-1.510;2023-02-15T05:01:43;34.53;;;21.30;;
21987;SDS011;11158;53.404;-1.510;2023-02-15T05:04:09;32.65;;;20.92;;
21987;SDS011;11158;53.404;-1.510;2023-02-15T05:06:34;30.65;;;21.52;;
21987;SDS011;11158;53.404;-1.510;2023-02-15T05:09:00;36.95;;;21.75;;
21987;SDS011;11158;53.404;-1.510;2023-02-15T05:11:26;35.53;;;23.15;;
21987;SDS011;11158;53.404;-1.510;2023-02-15T05:13:52;36.42;;;21.50;;
21987;SDS011;11158;53.404;-1.510;2023-02-15T05:16:18;32.33;;;20.30;;
21987;SDS011;11158;53.404;-1.510;2023-02-15T05:18:43;35.63;;;21.90;;
21987;SDS011;11158;53.404;-1.510;2023-02-15T05:21:09;32.22;;;21.42;;
21987;SDS011;11158;53.404;-1.510;2023-02-15T05:23:34;33.30;;;21.65;;
21987;SDS011;11158;53.404;-1.510;2023-02-15T05:26:00;33.33;;;21.02;;
21987;SDS011;11158;53.404;-1.510;2023-02-15T05:28:44;34.80;;;21.08;;
21987;SDS011;11158;53.404;-1.510;2023-02-15T05:31:11;32.88;;;21.38;;
21987;SDS011;11158;53.404;-1.510;2023-02-15T05:33:41;31.92;;;21.27;;
21987;SDS011;11158;53.404;-1.510;2023-02-15T05:36:08;34.78;;;23.25;;
21987;SDS011;11158;53.404;-1.510;2023-02-15T05:38:34;35.95;;;22.77;;
21987;SDS011;11158;53.404;-1.510;2023-02-15T05:41:01;32.13;;;21.92;;
21987;SDS011;11158;53.404;-1.510;2023-02-15T05:43:27;36.35;;;22.60;;
21987;SDS011;11158;53.404;-1.510;2023-02-15T05:45:53;36.13;;;22.15;;
21987;SDS011;11158;53.404;-1.510;2023-02-15T05:48:20;31.60;;;22.13;;
21987;SDS011;11158;53.404;-1.510;2023-02-15T05:50:56;39.05;;;23.60;;
21987;SDS011;11158;53.404;-1.510;2023-02-15T05:53:37;37.28;;;24.17;;
21987;SDS011;11158;53.404;-1.510;2023-02-15T05:56:03;37.28;;;25.27;;
21987;SDS011;11158;53.404;-1.510;2023-02-15T05:58:37;42.65;;;24.92;;
21987;SDS011;11158;53.404;-1.510;2023-02-15T06:01:08;34.78;;;23.75;;
21987;SDS011;11158;53.404;-1.510;2023-02-15T06:03:53;33.58;;;24.05;;
21987;SDS011;11158;53.404;-1.510;2023-02-15T06:06:20;35.50;;;23.17;;
21987;SDS011;11158;53.404;-1.510;2023-02-15T06:08:46;38.22;;;24.60;;
21987;SDS011;11158;53.404;-1.510;2023-02-15T06:11:12;37.88;;;23.92;;
21987;SDS011;11158;53.404;-1.510;2023-02-15T06:13:37;42.67;;;25.50;;
21987;SDS011;11158;53.404;-1.510;2023-02-15T06:16:03;40.80;;;25.25;;
21987;SDS011;11158;53.404;-1.510;2023-02-15T06:18:29;38.05;;;24.08;;
21987;SDS011;11158;53.404;-1.510;2023-02-15T06:20:54;37.22;;;23.98;;
21987;SDS011;11158;53.404;-1.510;2023-02-15T06:23:20;43.30;;;24.88;;
21987;SDS011;11158;53.404;-1.510;2023-02-15T06:25:45;36.17;;;24.05;;
21987;SDS011;11158;53.404;-1.510;2023-02-15T06:28:11;37.80;;;25.27;;
21987;SDS011;11158;53.404;-1.510;2023-02-15T06:30:37;38.22;;;23.75;;
21987;SDS011;11158;53.404;-1.510;2023-02-15T06:33:03;37.55;;;24.48;;
21987;SDS011;11158;53.404;-1.510;2023-02-15T06:35:29;40.67;;;24.67;;
21987;SDS011;11158;53.404;-1.510;2023-02-15T06:37:54;38.50;;;25.15;;
21987;SDS011;11158;53.404;-1.510;2023-02-15T06:40:20;40.80;;;24.90;;
21987;SDS011;11158;53.404;-1.510;2023-02-15T06:42:45;40.40;;;25.20;;
21987;SDS011;11158;53.404;-1.510;2023-02-15T06:45:11;40.17;;;25.85;;
21987;SDS011;11158;53.404;-1.510;2023-02-15T06:47:37;37.95;;;24.55;;
21987;SDS011;11158;53.404;-1.510;2023-02-15T06:50:06;40.65;;;26.13;;
21987;SDS011;11158;53.404;-1.510;2023-02-15T06:52:32;37.55;;;25.63;;
21987;SDS011;11158;53.404;-1.510;2023-02-15T06:54:58;42.33;;;25.00;;
21987;SDS011;11158;53.404;-1.510;2023-02-15T06:57:24;37.67;;;24.52;;
21987;SDS011;11158;53.404;-1.510;2023-02-15T06:59:50;40.13;;;25.40;;
21987;SDS011;11158;53.404;-1.510;2023-02-15T07:02:15;42.88;;;25.50;;
21987;SDS011;11158;53.404;-1.510;2023-02-15T07:04:41;38.55;;;24.63;;
21987;SDS011;11158;53.404;-1.510;2023-02-15T07:07:10;40.13;;;25.20;;
21987;SDS011;11158;53.404;-1.510;2023-02-15T07:09:37;43.78;;;26.77;;
21987;SDS011;11158;53.404;-1.510;2023-02-15T07:12:03;46.25;;;26.83;;
21987;SDS011;11158;53.404;-1.510;2023-02-15T07:14:48;41.15;;;24.98;;
21987;SDS011;11158;53.404;-1.510;2023-02-15T07:17:14;37.38;;;25.52;;
21987;SDS011;11158;53.404;-1.510;2023-02-15T07:19:40;41.65;;;27.17;;
21987;SDS011;11158;53.404;-1.510;2023-02-15T07:22:05;41.55;;;26.05;;
21987;SDS011;11158;53.404;-1.510;2023-02-15T07:24:33;41.60;;;26.60;;
21987;SDS011;11158;53.404;-1.510;2023-02-15T07:26:59;45.63;;;27.52;;
21987;SDS011;11158;53.404;-1.510;2023-02-15T07:29:25;44.35;;;26.73;;
21987;SDS011;11158;53.404;-1.510;2023-02-15T07:31:50;43.40;;;25.27;;
21987;SDS011;11158;53.404;-1.510;2023-02-15T07:34:16;42.08;;;26.83;;
21987;SDS011;11158;53.404;-1.510;2023-02-15T07:36:42;41.38;;;26.50;;
21987;SDS011;11158;53.404;-1.510;2023-02-15T07:39:09;44.67;;;27.20;;
21987;SDS011;11158;53.404;-1.510;2023-02-15T07:41:35;43.67;;;25.30;;
21987;SDS011;11158;53.404;-1.510;2023-02-15T07:44:01;47.67;;;28.58;;
21987;SDS011;11158;53.404;-1.510;2023-02-15T07:46:27;47.28;;;26.98;;
21987;SDS011;11158;53.404;-1.510;2023-02-15T07:48:53;45.00;;;26.88;;
21987;SDS011;11158;53.404;-1.510;2023-02-15T07:51:19;47.78;;;27.13;;
21987;SDS011;11158;53.404;-1.510;2023-02-15T07:53:45;42.47;;;27.17;;
21987;SDS011;11158;53.404;-1.510;2023-02-15T07:56:11;45.97;;;28.48;;
21987;SDS011;11158;53.404;-1.510;2023-02-15T07:58:39;44.53;;;29.08;;
21987;SDS011;11158;53.404;-1.510;2023-02-15T08:01:27;43.30;;;27.30;;
21987;SDS011;11158;53.404;-1.510;2023-02-15T08:03:55;40.95;;;27.33;;
21987;SDS011;11158;53.404;-1.510;2023-02-15T08:06:24;43.40;;;26.90;;
21987;SDS011;11158;53.404;-1.510;2023-02-15T08:08:51;45.45;;;27.55;;
21987;SDS011;11158;53.404;-1.510;2023-02-15T08:11:25;47.20;;;27.35;;
21987;SDS011;11158;53.404;-1.510;2023-02-15T08:16:44;48.50;;;27.15;;
21987;SDS011;11158;53.404;-1.510;2023-02-15T08:19:18;44.08;;;26.98;;
21987;SDS011;11158;53.404;-1.510;2023-02-15T08:21:46;33.58;;;20.80;;
21987;SDS011;11158;53.404;-1.510;2023-02-15T08:24:21;45.05;;;25.98;;
21987;SDS011;11158;53.404;-1.510;2023-02-15T08:26:48;58.13;;;28.38;;
21987;SDS011;11158;53.404;-1.510;2023-02-15T08:29:15;45.85;;;29.00;;
21987;SDS011;11158;53.404;-1.510;2023-02-15T08:31:42;44.85;;;28.63;;
21987;SDS011;11158;53.404;-1.510;2023-02-15T08:34:09;46.08;;;28.58;;
21987;SDS011;11158;53.404;-1.510;2023-02-15T08:36:36;45.90;;;27.33;;
21987;SDS011;11158;53.404;-1.510;2023-02-15T08:39:03;50.25;;;26.33;;
21987;SDS011;11158;53.404;-1.510;2023-02-15T08:41:31;41.05;;;24.50;;
21987;SDS011;11158;53.404;-1.510;2023-02-15T08:44:00;37.17;;;24.77;;
21987;SDS011;11158;53.404;-1.510;2023-02-15T08:46:29;40.97;;;24.63;;
21987;SDS011;11158;53.404;-1.510;2023-02-15T08:48:57;42.47;;;26.40;;
21987;SDS011;11158;53.404;-1.510;2023-02-15T08:51:24;45.25;;;25.60;;
21987;SDS011;11158;53.404;-1.510;2023-02-15T08:53:52;44.70;;;26.48;;
21987;SDS011;11158;53.404;-1.510;2023-02-15T08:56:22;47.85;;;31.15;;
21987;SDS011;11158;53.404;-1.510;2023-02-15T08:58:50;47.05;;;29.80;;
21987;SDS011;11158;53.404;-1.510;2023-02-15T09:01:17;41.58;;;27.23;;
21987;SDS011;11158;53.404;-1.510;2023-02-15T09:03:48;37.67;;;22.55;;
21987;SDS011;11158;53.404;-1.510;2023-02-15T09:06:16;36.00;;;23.35;;
21987;SDS011;11158;53.404;-1.510;2023-02-15T09:08:42;37.15;;;22.60;;
21987;SDS011;11158;53.404;-1.510;2023-02-15T09:11:12;33.88;;;20.63;;
21987;SDS011;11158;53.404;-1.510;2023-02-15T09:13:41;34.47;;;21.05;;
21987;SDS011;11158;53.404;-1.510;2023-02-15T09:16:08;33.30;;;22.25;;
21987;SDS011;11158;53.404;-1.510;2023-02-15T09:18:35;32.78;;;20.60;;
21987;SDS011;11158;53.404;-1.510;2023-02-15T09:21:07;34.15;;;22.88;;
21987;SDS011;11158;53.404;-1.510;2023-02-15T09:23:34;34.08;;;20.92;;
21987;SDS011;11158;53.404;-1.510;2023-02-15T09:26:04;32.30;;;21.80;;
21987;SDS011;11158;53.404;-1.510;2023-02-15T09:28:32;35.70;;;21.75;;
21987;SDS011;11158;53.404;-1.510;2023-02-15T09:31:09;43.67;;;23.17;;
21987;SDS011;11158;53.404;-1.510;2023-02-15T09:33:35;42.25;;;22.50;;
21987;SDS011;11158;53.404;-1.510;2023-02-15T09:36:03;46.95;;;23.98;;
21987;SDS011;11158;53.404;-1.510;2023-02-15T09:38:29;47.17;;;24.02;;
21987;SDS011;11158;53.404;-1.510;2023-02-15T09:43:43;40.92;;;23.15;;
21987;SDS011;11158;53.404;-1.510;2023-02-15T09:52:05;39.53;;;22.63;;
21987;SDS011;11158;53.404;-1.510;2023-02-15T10:06:20;42.67;;;21.67;;
21987;SDS011;11158;53.404;-1.510;2023-02-15T10:11:52;36.78;;;20.63;;
21987;SDS011;11158;53.404;-1.510;2023-02-15T10:22:38;26.92;;;17.88;;
21987;SDS011;11158;53.404;-1.510;2023-02-15T10:27:47;31.83;;;18.88;;
21987;SDS011;11158;53.404;-1.510;2023-02-15T10:33:01;28.35;;;17.48;;
21987;SDS011;11158;53.404;-1.510;2023-02-15T10:35:41;23.88;;;16.00;;
21987;SDS011;11158;53.404;-1.510;2023-02-15T10:38:20;29.90;;;17.73;;
21987;SDS011;11158;53.404;-1.510;2023-02-15T10:46:30;27.02;;;17.10;;
21987;SDS011;11158;53.404;-1.510;2023-02-15T10:52:08;31.77;;;18.45;;
21987;SDS011;11158;53.404;-1.510;2023-02-15T10:54:47;27.13;;;18.23;;
21987;SDS011;11158;53.404;-1.510;2023-02-15T10:57:17;27.48;;;17.45;;
21987;SDS011;11158;53.404;-1.510;2023-02-15T11:07:41;27.63;;;17.25;;
21987;SDS011;11158;53.404;-1.510;2023-02-15T11:12:55;28.70;;;18.95;;
21987;SDS011;11158;53.404;-1.510;2023-02-15T11:21:05;26.27;;;17.10;;
21987;SDS011;11158;53.404;-1.510;2023-02-15T11:23:40;26.85;;;16.08;;
21987;SDS011;11158;53.404;-1.510;2023-02-15T11:26:16;29.92;;;17.08;;
21987;SDS011;11158;53.404;-1.510;2023-02-15T11:30:09;24.60;;;16.45;;
21987;SDS011;11158;53.404;-1.510;2023-02-15T11:32:23;23.88;;;15.30;;
21987;SDS011;11158;53.404;-1.510;2023-02-15T11:37:21;23.55;;;15.63;;
21987;SDS011;11158;53.404;-1.510;2023-02-15T11:39:53;29.65;;;16.13;;
21987;SDS011;11158;53.404;-1.510;2023-02-15T11:42:20;22.65;;;15.50;;
21987;SDS011;11158;53.404;-1.510;2023-02-15T11:47:27;23.00;;;15.25;;
21987;SDS011;11158;53.404;-1.510;2023-02-15T11:49:53;21.52;;;13.93;;
21987;SDS011;11158;53.404;-1.510;2023-02-15T11:52:18;19.90;;;12.98;;
21987;SDS011;11158;53.404;-1.510;2023-02-15T11:54:48;23.48;;;14.00;;
21987;SDS011;11158;53.404;-1.510;2023-02-15T11:57:23;24.52;;;14.27;;
21987;SDS011;11158;53.404;-1.510;2023-02-15T12:02:38;20.95;;;13.98;;
21987;SDS011;11158;53.404;-1.510;2023-02-15T12:05:12;21.92;;;13.50;;
21987;SDS011;11158;53.404;-1.510;2023-02-15T12:10:36;24.33;;;13.48;;
21987;SDS011;11158;53.404;-1.510;2023-02-15T12:13:09;23.52;;;14.05;;
21987;SDS011;11158;53.404;-1.510;2023-02-15T12:15:37;21.35;;;14.20;;
21987;SDS011;11158;53.404;-1.510;2023-02-15T12:18:15;23.75;;;13.93;;
21987;SDS011;11158;53.404;-1.510;2023-02-15T12:21:05;28.83;;;14.23;;
21987;SDS011;11158;53.404;-1.510;2023-02-15T12:23:52;21.95;;;13.63;;
21987;SDS011;11158;53.404;-1.510;2023-02-15T12:26:28;20.95;;;13.27;;
21987;SDS011;11158;53.404;-1.510;2023-02-15T12:29:00;22.00;;;13.75;;
21987;SDS011;11158;53.404;-1.510;2023-02-15T12:31:39;19.02;;;13.25;;
21987;SDS011;11158;53.404;-1.510;2023-02-15T12:34:12;21.83;;;12.38;;
21987;SDS011;11158;53.404;-1.510;2023-02-15T12:36:50;16.83;;;10.95;;
21987;SDS011;11158;53.404;-1.510;2023-02-15T12:39:26;18.55;;;11.80;;
21987;SDS011;11158;53.404;-1.510;2023-02-15T12:44:19;20.35;;;10.65;;
21987;SDS011;11158;53.404;-1.510;2023-02-15T12:47:02;23.58;;;11.48;;
21987;SDS011;11158;53.404;-1.510;2023-02-15T12:49:44;17.58;;;11.43;;
21987;SDS011;11158;53.404;-1.510;2023-02-15T12:52:30;17.77;;;11.70;;
21987;SDS011;11158;53.404;-1.510;2023-02-15T12:54:56;19.60;;;12.02;;
21987;SDS011;11158;53.404;-1.510;2023-02-15T12:57:42;19.00;;;11.30;;
21987;SDS011;11158;53.404;-1.510;2023-02-15T13:02:49;19.00;;;11.93;;
21987;SDS011;11158;53.404;-1.510;2023-02-15T13:11:11;20.30;;;12.68;;
21987;SDS011;11158;53.404;-1.510;2023-02-15T13:19:04;19.83;;;13.35;;
21987;SDS011;11158;53.404;-1.510;2023-02-15T13:21:37;19.15;;;12.95;;
21987;SDS011;11158;53.404;-1.510;2023-02-15T13:26:37;21.25;;;13.93;;
21987;SDS011;11158;53.404;-1.510;2023-02-15T13:29:06;23.30;;;14.48;;
21987;SDS011;11158;53.404;-1.510;2023-02-15T13:31:39;21.40;;;13.45;;
21987;SDS011;11158;53.404;-1.510;2023-02-15T13:34:20;21.80;;;13.32;;
21987;SDS011;11158;53.404;-1.510;2023-02-15T13:42:19;20.70;;;10.82;;
21987;SDS011;11158;53.404;-1.510;2023-02-15T13:47:45;19.65;;;12.77;;
21987;SDS011;11158;53.404;-1.510;2023-02-15T13:53:31;26.52;;;11.98;;
21987;SDS011;11158;53.404;-1.510;2023-02-15T13:56:02;20.40;;;12.07;;
21987;SDS011;11158;53.404;-1.510;2023-02-15T14:02:30;15.32;;;11.15;;
21987;SDS011;11158;53.404;-1.510;2023-02-15T14:04:37;19.02;;;11.75;;
21987;SDS011;11158;53.404;-1.510;2023-02-15T14:12:55;14.00;;;9.75;;
21987;SDS011;11158;53.404;-1.510;2023-02-15T14:15:32;18.05;;;10.63;;
21987;SDS011;11158;53.404;-1.510;2023-02-15T14:18:04;19.25;;;10.68;;
21987;SDS011;11158;53.404;-1.510;2023-02-15T14:26:19;14.93;;;10.32;;
21987;SDS011;11158;53.404;-1.510;2023-02-15T14:31:50;14.52;;;9.70;;
21987;SDS011;11158;53.404;-1.510;2023-02-15T14:34:24;16.58;;;11.25;;
21987;SDS011;11158;53.404;-1.510;2023-02-15T14:36:56;19.92;;;10.50;;
21987;SDS011;11158;53.404;-1.510;2023-02-15T14:39:29;17.45;;;10.70;;
21987;SDS011;11158;53.404;-1.510;2023-02-15T14:42:24;15.88;;;11.27;;
21987;SDS011;11158;53.404;-1.510;2023-02-15T14:45:05;20.58;;;11.55;;
21987;SDS011;11158;53.404;-1.510;2023-02-15T14:47:40;20.38;;;11.32;;
21987;SDS011;11158;53.404;-1.510;2023-02-15T14:53:20;15.73;;;11.80;;
21987;SDS011;11158;53.404;-1.510;2023-02-15T14:56:13;20.48;;;11.82;;
21987;SDS011;11158;53.404;-1.510;2023-02-15T15:01:14;16.25;;;12.32;;
21987;SDS011;11158;53.404;-1.510;2023-02-15T15:03:49;18.40;;;10.48;;
21987;SDS011;11158;53.404;-1.510;2023-02-15T15:06:29;18.33;;;11.40;;
21987;SDS011;11158;53.404;-1.510;2023-02-15T15:11:46;15.35;;;11.05;;
21987;SDS011;11158;53.404;-1.510;2023-02-15T15:17:13;16.42;;;11.05;;
21987;SDS011;11158;53.404;-1.510;2023-02-15T15:19:58;17.67;;;12.10;;
21987;SDS011;11158;53.404;-1.510;2023-02-15T15:22:28;14.48;;;10.63;;
21987;SDS011;11158;53.404;-1.510;2023-02-15T15:24:57;17.23;;;11.70;;
21987;SDS011;11158;53.404;-1.510;2023-02-15T15:41:39;16.10;;;10.27;;
21987;SDS011;11158;53.404;-1.510;2023-02-15T15:49:11;19.00;;;11.80;;
21987;SDS011;11158;53.404;-1.510;2023-02-15T15:51:40;19.23;;;11.95;;
21987;SDS011;11158;53.404;-1.510;2023-02-15T15:54:17;21.00;;;13.38;;
21987;SDS011;11158;53.404;-1.510;2023-02-15T15:56:52;19.10;;;11.88;;
21987;SDS011;11158;53.404;-1.510;2023-02-15T15:59:26;21.42;;;13.25;;
21987;SDS011;11158;53.404;-1.510;2023-02-15T16:01:55;19.10;;;12.10;;
21987;SDS011;11158;53.404;-1.510;2023-02-15T16:04:30;17.90;;;12.30;;
21987;SDS011;11158;53.404;-1.510;2023-02-15T16:06:58;17.10;;;12.40;;
21987;SDS011;11158;53.404;-1.510;2023-02-15T16:09:38;21.95;;;12.35;;
21987;SDS011;11158;53.404;-1.510;2023-02-15T16:12:04;25.17;;;13.43;;
21987;SDS011;11158;53.404;-1.510;2023-02-15T16:14:40;16.88;;;11.55;;
21987;SDS011;11158;53.404;-1.510;2023-02-15T16:17:15;15.93;;;10.93;;
21987;SDS011;11158;53.404;-1.510;2023-02-15T16:19:45;15.98;;;10.55;;
21987;SDS011;11158;53.404;-1.510;2023-02-15T16:22:15;17.63;;;10.82;;
21987;SDS011;11158;53.404;-1.510;2023-02-15T16:27:42;18.83;;;10.82;;
21987;SDS011;11158;53.404;-1.510;2023-02-15T16:30:42;14.82;;;10.05;;
21987;SDS011;11158;53.404;-1.510;2023-02-15T16:33:15;13.55;;;9.15;;
21987;SDS011;11158;53.404;-1.510;2023-02-15T16:38:47;14.30;;;9.20;;
21987;SDS011;11158;53.404;-1.510;2023-02-15T16:41:29;11.80;;;9.73;;
21987;SDS011;11158;53.404;-1.510;2023-02-15T16:43:56;14.30;;;9.50;;
21987;SDS011;11158;53.404;-1.510;2023-02-15T16:46:36;13.25;;;9.18;;
21987;SDS011;11158;53.404;-1.510;2023-02-15T16:49:07;12.98;;;9.27;;
21987;SDS011;11158;53.404;-1.510;2023-02-15T16:51:42;12.93;;;9.60;;
21987;SDS011;11158;53.404;-1.510;2023-02-15T16:54:17;12.45;;;9.65;;
21987;SDS011;11158;53.404;-1.510;2023-02-15T16:56:46;12.93;;;9.57;;
21987;SDS011;11158;53.404;-1.510;2023-02-15T16:59:19;15.02;;;9.25;;
21987;SDS011;11158;53.404;-1.510;2023-02-15T17:01:55;11.50;;;9.25;;
21987;SDS011;11158;53.404;-1.510;2023-02-15T17:07:04;13.38;;;9.23;;
21987;SDS011;11158;53.404;-1.510;2023-02-15T17:09:32;13.05;;;9.55;;
21987;SDS011;11158;53.404;-1.510;2023-02-15T17:11:58;15.07;;;9.70;;
21987;SDS011;11158;53.404;-1.510;2023-02-15T17:14:27;13.95;;;10.10;;
21987;SDS011;11158;53.404;-1.510;2023-02-15T17:17:07;14.07;;;10.25;;
21987;SDS011;11158;53.404;-1.510;2023-02-15T17:22:17;17.60;;;12.27;;
21987;SDS011;11158;53.404;-1.510;2023-02-15T17:24:46;20.75;;;14.45;;
21987;SDS011;11158;53.404;-1.510;2023-02-15T17:27:20;18.92;;;13.20;;
21987;SDS011;11158;53.404;-1.510;2023-02-15T17:29:50;21.52;;;11.35;;
21987;SDS011;11158;53.404;-1.510;2023-02-15T17:32:21;18.25;;;10.82;;
21987;SDS011;11158;53.404;-1.510;2023-02-15T17:34:50;13.85;;;10.10;;
21987;SDS011;11158;53.404;-1.510;2023-02-15T17:39:50;16.38;;;10.52;;
21987;SDS011;11158;53.404;-1.510;2023-02-15T17:42:16;25.13;;;16.60;;
21987;SDS011;11158;53.404;-1.510;2023-02-15T17:44:41;250.70;;;133.98;;